Terminal Aerodrome Forecast
Issued by NWS Sioux Falls, SD

Home | Current Version | Previous Version | Graphics & Text | Print | Product List | Glossary Off
Versions: 1 2 3 4 5 6 7 8 9 10 11 12 13 14 15 16

669
FTUS43 KFSD 282322
TAFHON
TAF
KHON 282322Z 2900/2924 16009KT P6SM FEW250
     FM290400 18008KT P6SM FEW250
     FM291900 15006KT P6SM FEW120
     FM292100 12006KT P6SM SCT080=

USA.gov is the U.S. government's official web portal to all federal, state and local government web resources and services.